This is the latest recevied weather packets stored in our database for station/object KF4ERV-4. If no packets are shown the sender has not sent any weather packets the latest 10 day(s).
| Time | Temp. | Humidity | Pressure | Rain* | Wind** | Luminosity | Snow |
|---|---|---|---|---|---|---|---|
| 1777297477 | 17.22° C | 50% | 1016 hPa | 0 mm | - | - | - |
| 1777297349 | 16.67° C | 48% | 1016 hPa | 0 mm | - | - | - |
| 1777297266 | 16.67° C | 47% | 1016 hPa | 0 mm | - | - | - |
| 1777297180 | 16.67° C | 48% | 1016 hPa | 0 mm | - | - | - |
| 1777297063 | 16.67° C | 47% | 1016 hPa | 0 mm | - | - | - |
| 1777296872 | 16.67° C | 47% | 1016 hPa | 0 mm | - | - | - |
| 1777296769 | 16.11° C | 42% | 1016.6 hPa | 0 mm | - | - | - |
| 1777296688 | 16.11° C | 41% | 1016.9 hPa | 0 mm | - | - | - |
| 1777296575 | 16.11° C | 42% | 1016.6 hPa | 0 mm | - | - | - |
| 1777296481 | 16.11° C | 41% | 1016.9 hPa | 0 mm | - | - | - |
| 1777296278 | 16.11° C | 41% | 1016.9 hPa | 0 mm | - | - | - |
| 1777296190 | 16.11° C | 42% | 1016.7 hPa | 0 mm | - | - | - |
| 1777296142 | 16.11° C | 42% | 1016.7 hPa | 0 mm | - | - | - |
| 1777296110 | 15.56° C | 40% | 1016.3 hPa | 0 mm | - | - | - |
| 1777296103 | 15.56° C | 39% | 1016 hPa | 0 mm | - | - | - |
| 1777295970 | 16.11° C | 42% | 1016.7 hPa | 0 mm | - | - | - |
| 1777295900 | 15.56° C | 41% | 1016.6 hPa | 0 mm | - | - | - |
| 1777295673 | 15.56° C | 41% | 1016.6 hPa | 0 mm | - | - | - |
| 1777295610 | 15.56° C | 40% | 1016.3 hPa | 0 mm | - | - | - |
| 1777295377 | 15.56° C | 40% | 1016.3 hPa | 0 mm | - | - | - |
| 1777295320 | 15.56° C | 39% | 1016 hPa | 0 mm | - | - | - |
| 1777295236 | 15° C | 38% | 1016 hPa | 0 mm | - | - | - |
| 1777295153 | 14.44° C | 35% | 1016 hPa | 0 mm | - | - | - |
| 1777295079 | 15.56° C | 39% | 1016 hPa | 0 mm | - | - | - |
| 1777295030 | 15° C | 38% | 1016 hPa | 0 mm | - | - | - |
* Rain latest hour (hover to see other rain measurements)
** Current wind speed in m/s (hover to see current wind gust speed)